sensor_id;sensor_type;location;lat;lon;timestamp;P1;durP1;ratioP1;P2;durP2;ratioP2
5967;SDS011;3010;51.028;4.170;2022-12-11T00:02:11;47.60;;;27.37;;
5967;SDS011;3010;51.028;4.170;2022-12-11T00:04:37;44.10;;;22.00;;
5967;SDS011;3010;51.028;4.170;2022-12-11T00:07:04;48.25;;;27.35;;
5967;SDS011;3010;51.028;4.170;2022-12-11T00:09:30;45.67;;;23.63;;
5967;SDS011;3010;51.028;4.170;2022-12-11T00:11:57;46.90;;;25.33;;
5967;SDS011;3010;51.028;4.170;2022-12-11T00:14:24;36.00;;;20.97;;
5967;SDS011;3010;51.028;4.170;2022-12-11T00:16:50;48.53;;;26.45;;
5967;SDS011;3010;51.028;4.170;2022-12-11T00:19:17;41.70;;;21.60;;
5967;SDS011;3010;51.028;4.170;2022-12-11T00:21:43;38.87;;;20.43;;
5967;SDS011;3010;51.028;4.170;2022-12-11T00:24:10;39.37;;;20.60;;
5967;SDS011;3010;51.028;4.170;2022-12-11T00:26:37;47.20;;;25.88;;
5967;SDS011;3010;51.028;4.170;2022-12-11T00:29:03;42.10;;;20.67;;
5967;SDS011;3010;51.028;4.170;2022-12-11T00:31:30;41.37;;;21.00;;
5967;SDS011;3010;51.028;4.170;2022-12-11T00:33:56;40.73;;;20.50;;
5967;SDS011;3010;51.028;4.170;2022-12-11T00:36:24;50.55;;;27.45;;
5967;SDS011;3010;51.028;4.170;2022-12-11T00:38:50;45.13;;;22.70;;
5967;SDS011;3010;51.028;4.170;2022-12-11T00:41:16;43.13;;;22.07;;
5967;SDS011;3010;51.028;4.170;2022-12-11T00:43:43;45.27;;;21.77;;
5967;SDS011;3010;51.028;4.170;2022-12-11T00:46:09;45.17;;;20.70;;
5967;SDS011;3010;51.028;4.170;2022-12-11T00:48:36;41.23;;;21.23;;
5967;SDS011;3010;51.028;4.170;2022-12-11T00:51:02;41.07;;;20.43;;
5967;SDS011;3010;51.028;4.170;2022-12-11T00:53:29;40.70;;;20.23;;
5967;SDS011;3010;51.028;4.170;2022-12-11T00:55:56;41.10;;;20.67;;
5967;SDS011;3010;51.028;4.170;2022-12-11T00:58:22;45.23;;;20.00;;
5967;SDS011;3010;51.028;4.170;2022-12-11T01:00:49;43.90;;;20.20;;
5967;SDS011;3010;51.028;4.170;2022-12-11T01:03:16;41.97;;;18.80;;
5967;SDS011;3010;51.028;4.170;2022-12-11T01:05:50;40.97;;;19.17;;
5967;SDS011;3010;51.028;4.170;2022-12-11T01:08:09;42.93;;;19.50;;
5967;SDS011;3010;51.028;4.170;2022-12-11T01:10:35;47.20;;;20.90;;
5967;SDS011;3010;51.028;4.170;2022-12-11T01:13:03;44.70;;;20.00;;
5967;SDS011;3010;51.028;4.170;2022-12-11T01:15:29;49.60;;;25.20;;
5967;SDS011;3010;51.028;4.170;2022-12-11T01:17:57;43.50;;;20.50;;
5967;SDS011;3010;51.028;4.170;2022-12-11T01:20:24;43.00;;;19.87;;
5967;SDS011;3010;51.028;4.170;2022-12-11T01:22:51;45.23;;;20.77;;
5967;SDS011;3010;51.028;4.170;2022-12-11T01:25:17;42.83;;;20.80;;
5967;SDS011;3010;51.028;4.170;2022-12-11T01:27:44;42.67;;;20.40;;
5967;SDS011;3010;51.028;4.170;2022-12-11T01:30:11;40.00;;;19.90;;
5967;SDS011;3010;51.028;4.170;2022-12-11T01:32:37;48.78;;;24.73;;
5967;SDS011;3010;51.028;4.170;2022-12-11T01:35:04;44.93;;;21.53;;
5967;SDS011;3010;51.028;4.170;2022-12-11T01:37:30;41.43;;;21.03;;
5967;SDS011;3010;51.028;4.170;2022-12-11T01:39:57;43.93;;;19.57;;
5967;SDS011;3010;51.028;4.170;2022-12-11T01:42:23;39.90;;;20.17;;
5967;SDS011;3010;51.028;4.170;2022-12-11T01:47:16;43.10;;;21.27;;
5967;SDS011;3010;51.028;4.170;2022-12-11T01:49:43;46.53;;;21.23;;
5967;SDS011;3010;51.028;4.170;2022-12-11T01:52:10;40.43;;;20.20;;
5967;SDS011;3010;51.028;4.170;2022-12-11T01:54:36;42.20;;;19.53;;
5967;SDS011;3010;51.028;4.170;2022-12-11T01:57:04;39.53;;;20.30;;
5967;SDS011;3010;51.028;4.170;2022-12-11T01:59:30;38.87;;;19.30;;
5967;SDS011;3010;51.028;4.170;2022-12-11T02:01:58;37.60;;;18.27;;
5967;SDS011;3010;51.028;4.170;2022-12-11T02:04:41;41.00;;;19.40;;
5967;SDS011;3010;51.028;4.170;2022-12-11T02:07:08;50.15;;;25.20;;
5967;SDS011;3010;51.028;4.170;2022-12-11T02:09:34;55.28;;;26.50;;
5967;SDS011;3010;51.028;4.170;2022-12-11T02:12:02;49.23;;;22.17;;
5967;SDS011;3010;51.028;4.170;2022-12-11T02:17:13;43.13;;;19.03;;
5967;SDS011;3010;51.028;4.170;2022-12-11T02:19:44;42.20;;;20.13;;
5967;SDS011;3010;51.028;4.170;2022-12-11T02:22:52;42.53;;;20.00;;
5967;SDS011;3010;51.028;4.170;2022-12-11T02:24:57;42.27;;;19.63;;
5967;SDS011;3010;51.028;4.170;2022-12-11T02:27:43;44.43;;;19.73;;
5967;SDS011;3010;51.028;4.170;2022-12-11T02:30:08;37.37;;;18.63;;
5967;SDS011;3010;51.028;4.170;2022-12-11T02:32:39;42.60;;;19.10;;
5967;SDS011;3010;51.028;4.170;2022-12-11T02:35:08;37.40;;;19.47;;
5967;SDS011;3010;51.028;4.170;2022-12-11T02:37:49;43.90;;;19.17;;
5967;SDS011;3010;51.028;4.170;2022-12-11T02:40:16;41.90;;;18.67;;
5967;SDS011;3010;51.028;4.170;2022-12-11T02:42:42;41.53;;;19.10;;
5967;SDS011;3010;51.028;4.170;2022-12-11T02:45:08;43.60;;;20.67;;
5967;SDS011;3010;51.028;4.170;2022-12-11T02:47:35;40.33;;;19.17;;
5967;SDS011;3010;51.028;4.170;2022-12-11T02:50:02;41.10;;;19.03;;
5967;SDS011;3010;51.028;4.170;2022-12-11T02:52:28;44.40;;;19.83;;
5967;SDS011;3010;51.028;4.170;2022-12-11T02:54:54;47.90;;;20.77;;
5967;SDS011;3010;51.028;4.170;2022-12-11T02:57:24;46.93;;;20.03;;
5967;SDS011;3010;51.028;4.170;2022-12-11T02:59:50;40.80;;;19.47;;
5967;SDS011;3010;51.028;4.170;2022-12-11T03:02:17;43.03;;;19.57;;
5967;SDS011;3010;51.028;4.170;2022-12-11T03:04:43;42.30;;;19.17;;
5967;SDS011;3010;51.028;4.170;2022-12-11T03:07:14;47.00;;;20.83;;
5967;SDS011;3010;51.028;4.170;2022-12-11T03:09:39;42.30;;;20.50;;
5967;SDS011;3010;51.028;4.170;2022-12-11T03:12:09;41.07;;;19.13;;
5967;SDS011;3010;51.028;4.170;2022-12-11T03:14:35;48.78;;;24.45;;
5967;SDS011;3010;51.028;4.170;2022-12-11T03:19:46;42.97;;;19.30;;
5967;SDS011;3010;51.028;4.170;2022-12-11T03:22:16;43.57;;;19.53;;
5967;SDS011;3010;51.028;4.170;2022-12-11T03:24:55;41.87;;;20.50;;
5967;SDS011;3010;51.028;4.170;2022-12-11T03:30:03;44.73;;;21.30;;
5967;SDS011;3010;51.028;4.170;2022-12-11T03:32:23;44.03;;;21.00;;
5967;SDS011;3010;51.028;4.170;2022-12-11T03:37:18;44.27;;;21.17;;
5967;SDS011;3010;51.028;4.170;2022-12-11T03:39:49;43.77;;;21.13;;
5967;SDS011;3010;51.028;4.170;2022-12-11T03:42:12;55.87;;;22.33;;
5967;SDS011;3010;51.028;4.170;2022-12-11T03:44:38;41.77;;;20.03;;
5967;SDS011;3010;51.028;4.170;2022-12-11T03:47:05;41.27;;;19.80;;
5967;SDS011;3010;51.028;4.170;2022-12-11T03:49:33;43.93;;;20.60;;
5967;SDS011;3010;51.028;4.170;2022-12-11T03:51:57;45.30;;;21.10;;
5967;SDS011;3010;51.028;4.170;2022-12-11T03:54:24;45.03;;;21.00;;
5967;SDS011;3010;51.028;4.170;2022-12-11T03:56:52;47.03;;;22.37;;
5967;SDS011;3010;51.028;4.170;2022-12-11T03:59:17;53.47;;;23.27;;
5967;SDS011;3010;51.028;4.170;2022-12-11T04:01:44;44.77;;;22.37;;
5967;SDS011;3010;51.028;4.170;2022-12-11T04:04:10;50.37;;;22.53;;
5967;SDS011;3010;51.028;4.170;2022-12-11T04:06:37;47.83;;;22.63;;
5967;SDS011;3010;51.028;4.170;2022-12-11T04:09:03;60.97;;;31.10;;
5967;SDS011;3010;51.028;4.170;2022-12-11T04:11:30;55.97;;;30.62;;
5967;SDS011;3010;51.028;4.170;2022-12-11T04:14:06;59.55;;;31.83;;
5967;SDS011;3010;51.028;4.170;2022-12-11T04:16:47;51.40;;;26.33;;
5967;SDS011;3010;51.028;4.170;2022-12-11T04:19:14;51.87;;;23.73;;
5967;SDS011;3010;51.028;4.170;2022-12-11T04:21:59;56.83;;;30.27;;
5967;SDS011;3010;51.028;4.170;2022-12-11T04:24:46;48.77;;;23.97;;
5967;SDS011;3010;51.028;4.170;2022-12-11T04:27:11;51.30;;;23.43;;
5967;SDS011;3010;51.028;4.170;2022-12-11T04:29:37;53.90;;;22.97;;
5967;SDS011;3010;51.028;4.170;2022-12-11T04:32:04;47.87;;;22.43;;
5967;SDS011;3010;51.028;4.170;2022-12-11T04:34:31;62.78;;;30.95;;
5967;SDS011;3010;51.028;4.170;2022-12-11T04:36:57;49.83;;;24.70;;
5967;SDS011;3010;51.028;4.170;2022-12-11T04:39:24;46.53;;;22.87;;
5967;SDS011;3010;51.028;4.170;2022-12-11T04:41:50;50.23;;;23.97;;
5967;SDS011;3010;51.028;4.170;2022-12-11T04:44:17;54.03;;;22.50;;
5967;SDS011;3010;51.028;4.170;2022-12-11T04:46:43;48.17;;;22.43;;
5967;SDS011;3010;51.028;4.170;2022-12-11T04:49:10;54.83;;;29.27;;
5967;SDS011;3010;51.028;4.170;2022-12-11T04:51:37;45.37;;;22.63;;
5967;SDS011;3010;51.028;4.170;2022-12-11T04:54:03;48.87;;;23.30;;
5967;SDS011;3010;51.028;4.170;2022-12-11T04:56:30;46.43;;;21.30;;
5967;SDS011;3010;51.028;4.170;2022-12-11T04:58:56;52.90;;;23.27;;
5967;SDS011;3010;51.028;4.170;2022-12-11T05:01:23;50.77;;;23.03;;
5967;SDS011;3010;51.028;4.170;2022-12-11T05:03:50;47.60;;;21.77;;
5967;SDS011;3010;51.028;4.170;2022-12-11T05:06:16;47.40;;;21.80;;
5967;SDS011;3010;51.028;4.170;2022-12-11T05:08:43;47.87;;;22.70;;
5967;SDS011;3010;51.028;4.170;2022-12-11T05:11:10;54.73;;;23.07;;
5967;SDS011;3010;51.028;4.170;2022-12-11T05:13:36;45.77;;;22.73;;
5967;SDS011;3010;51.028;4.170;2022-12-11T05:16:03;50.67;;;22.73;;
5967;SDS011;3010;51.028;4.170;2022-12-11T05:18:29;47.33;;;21.83;;
5967;SDS011;3010;51.028;4.170;2022-12-11T05:20:56;44.73;;;21.17;;
5967;SDS011;3010;51.028;4.170;2022-12-11T05:23:22;50.13;;;23.17;;
5967;SDS011;3010;51.028;4.170;2022-12-11T05:25:55;49.33;;;21.97;;
5967;SDS011;3010;51.028;4.170;2022-12-11T05:28:22;47.20;;;22.73;;
5967;SDS011;3010;51.028;4.170;2022-12-11T05:30:48;51.27;;;22.13;;
5967;SDS011;3010;51.028;4.170;2022-12-11T05:33:15;53.97;;;23.13;;
5967;SDS011;3010;51.028;4.170;2022-12-11T05:35:45;53.53;;;23.20;;
5967;SDS011;3010;51.028;4.170;2022-12-11T05:38:08;55.83;;;23.27;;
5967;SDS011;3010;51.028;4.170;2022-12-11T05:40:34;59.50;;;24.00;;
5967;SDS011;3010;51.028;4.170;2022-12-11T05:43:01;54.27;;;23.40;;
5967;SDS011;3010;51.028;4.170;2022-12-11T05:45:27;51.07;;;23.93;;
5967;SDS011;3010;51.028;4.170;2022-12-11T05:47:54;56.07;;;23.93;;
5967;SDS011;3010;51.028;4.170;2022-12-11T05:50:21;55.67;;;24.13;;
5967;SDS011;3010;51.028;4.170;2022-12-11T05:52:47;59.60;;;25.13;;
5967;SDS011;3010;51.028;4.170;2022-12-11T05:55:14;63.20;;;31.42;;
5967;SDS011;3010;51.028;4.170;2022-12-11T05:57:40;57.07;;;27.07;;
5967;SDS011;3010;51.028;4.170;2022-12-11T06:00:07;69.82;;;33.72;;
5967;SDS011;3010;51.028;4.170;2022-12-11T06:02:34;57.07;;;27.60;;
5967;SDS011;3010;51.028;4.170;2022-12-11T06:05:00;65.37;;;27.40;;
5967;SDS011;3010;51.028;4.170;2022-12-11T06:07:27;63.27;;;26.20;;
5967;SDS011;3010;51.028;4.170;2022-12-11T06:09:54;60.53;;;27.20;;
5967;SDS011;3010;51.028;4.170;2022-12-11T06:12:20;58.23;;;26.00;;
5967;SDS011;3010;51.028;4.170;2022-12-11T06:14:47;75.45;;;35.70;;
5967;SDS011;3010;51.028;4.170;2022-12-11T06:17:13;58.80;;;27.90;;
5967;SDS011;3010;51.028;4.170;2022-12-11T06:19:40;72.55;;;35.75;;
5967;SDS011;3010;51.028;4.170;2022-12-11T06:22:07;74.25;;;36.80;;
5967;SDS011;3010;51.028;4.170;2022-12-11T06:24:33;69.40;;;29.93;;
5967;SDS011;3010;51.028;4.170;2022-12-11T06:27:00;65.80;;;28.10;;
5967;SDS011;3010;51.028;4.170;2022-12-11T06:29:26;68.63;;;29.80;;
5967;SDS011;3010;51.028;4.170;2022-12-11T06:31:53;65.80;;;28.37;;
5967;SDS011;3010;51.028;4.170;2022-12-11T06:34:20;61.23;;;27.73;;
5967;SDS011;3010;51.028;4.170;2022-12-11T06:36:46;75.72;;;36.42;;
5967;SDS011;3010;51.028;4.170;2022-12-11T06:39:13;63.17;;;29.13;;
5967;SDS011;3010;51.028;4.170;2022-12-11T06:41:39;74.65;;;36.85;;
5967;SDS011;3010;51.028;4.170;2022-12-11T06:44:06;63.93;;;30.40;;
5967;SDS011;3010;51.028;4.170;2022-12-11T06:46:33;73.37;;;35.53;;
5967;SDS011;3010;51.028;4.170;2022-12-11T06:48:59;67.23;;;29.60;;
5967;SDS011;3010;51.028;4.170;2022-12-11T06:51:26;63.50;;;28.10;;
5967;SDS011;3010;51.028;4.170;2022-12-11T06:53:53;60.70;;;26.50;;
5967;SDS011;3010;51.028;4.170;2022-12-11T06:56:19;54.27;;;25.93;;
5967;SDS011;3010;51.028;4.170;2022-12-11T06:58:45;59.57;;;26.20;;
5967;SDS011;3010;51.028;4.170;2022-12-11T07:01:13;68.90;;;27.43;;
5967;SDS011;3010;51.028;4.170;2022-12-11T07:03:42;64.47;;;27.30;;
5967;SDS011;3010;51.028;4.170;2022-12-11T07:06:08;62.60;;;25.83;;
5967;SDS011;3010;51.028;4.170;2022-12-11T07:08:35;67.13;;;25.57;;
5967;SDS011;3010;51.028;4.170;2022-12-11T07:11:02;62.23;;;26.93;;
5967;SDS011;3010;51.028;4.170;2022-12-11T07:13:28;56.20;;;25.47;;
5967;SDS011;3010;51.028;4.170;2022-12-11T07:15:56;63.17;;;26.70;;
5967;SDS011;3010;51.028;4.170;2022-12-11T07:18:21;62.70;;;27.53;;
5967;SDS011;3010;51.028;4.170;2022-12-11T07:20:48;63.93;;;27.53;;
5967;SDS011;3010;51.028;4.170;2022-12-11T07:23:14;72.87;;;35.47;;
5967;SDS011;3010;51.028;4.170;2022-12-11T07:25:41;66.30;;;28.70;;
5967;SDS011;3010;51.028;4.170;2022-12-11T07:28:07;58.57;;;26.83;;
5967;SDS011;3010;51.028;4.170;2022-12-11T07:30:34;59.83;;;26.83;;
5967;SDS011;3010;51.028;4.170;2022-12-11T07:33:01;58.40;;;25.47;;
5967;SDS011;3010;51.028;4.170;2022-12-11T07:35:27;57.13;;;26.07;;
5967;SDS011;3010;51.028;4.170;2022-12-11T07:37:54;66.57;;;27.13;;
5967;SDS011;3010;51.028;4.170;2022-12-11T07:40:20;54.87;;;25.33;;
5967;SDS011;3010;51.028;4.170;2022-12-11T07:42:47;64.50;;;26.70;;
5967;SDS011;3010;51.028;4.170;2022-12-11T07:45:14;55.53;;;26.67;;
5967;SDS011;3010;51.028;4.170;2022-12-11T07:47:40;62.90;;;25.47;;
5967;SDS011;3010;51.028;4.170;2022-12-11T07:50:07;56.63;;;25.30;;
5967;SDS011;3010;51.028;4.170;2022-12-11T07:52:33;60.73;;;25.93;;
5967;SDS011;3010;51.028;4.170;2022-12-11T07:55:00;60.10;;;27.30;;
5967;SDS011;3010;51.028;4.170;2022-12-11T07:57:27;57.63;;;25.80;;
5967;SDS011;3010;51.028;4.170;2022-12-11T07:59:53;64.83;;;27.03;;
5967;SDS011;3010;51.028;4.170;2022-12-11T08:02:20;57.20;;;26.13;;
5967;SDS011;3010;51.028;4.170;2022-12-11T08:04:46;60.40;;;26.47;;
5967;SDS011;3010;51.028;4.170;2022-12-11T08:07:13;64.77;;;27.20;;
5967;SDS011;3010;51.028;4.170;2022-12-11T08:09:39;62.83;;;26.97;;
5967;SDS011;3010;51.028;4.170;2022-12-11T08:12:06;65.77;;;27.47;;
5967;SDS011;3010;51.028;4.170;2022-12-11T08:14:33;60.67;;;27.17;;
5967;SDS011;3010;51.028;4.170;2022-12-11T08:16:59;62.27;;;28.10;;
5967;SDS011;3010;51.028;4.170;2022-12-11T08:19:26;60.13;;;25.73;;
5967;SDS011;3010;51.028;4.170;2022-12-11T08:21:52;53.33;;;25.60;;
5967;SDS011;3010;51.028;4.170;2022-12-11T08:24:19;60.60;;;26.80;;
5967;SDS011;3010;51.028;4.170;2022-12-11T08:26:46;56.93;;;26.17;;
5967;SDS011;3010;51.028;4.170;2022-12-11T08:29:12;61.23;;;26.63;;
5967;SDS011;3010;51.028;4.170;2022-12-11T08:31:40;58.20;;;24.90;;
5967;SDS011;3010;51.028;4.170;2022-12-11T08:34:07;57.45;;;29.55;;
5967;SDS011;3010;51.028;4.170;2022-12-11T08:36:33;52.37;;;24.30;;
5967;SDS011;3010;51.028;4.170;2022-12-11T08:39:00;48.33;;;23.10;;
5967;SDS011;3010;51.028;4.170;2022-12-11T08:41:27;54.75;;;29.20;;
5967;SDS011;3010;51.028;4.170;2022-12-11T08:43:53;50.90;;;24.50;;
5967;SDS011;3010;51.028;4.170;2022-12-11T08:46:20;46.73;;;23.30;;
5967;SDS011;3010;51.028;4.170;2022-12-11T08:48:46;52.70;;;24.07;;
5967;SDS011;3010;51.028;4.170;2022-12-11T08:51:17;49.83;;;23.07;;
5967;SDS011;3010;51.028;4.170;2022-12-11T08:53:39;49.83;;;23.27;;
5967;SDS011;3010;51.028;4.170;2022-12-11T08:56:07;49.60;;;22.40;;
5967;SDS011;3010;51.028;4.170;2022-12-11T08:58:33;48.03;;;22.37;;
5967;SDS011;3010;51.028;4.170;2022-12-11T09:00:59;46.03;;;22.20;;
5967;SDS011;3010;51.028;4.170;2022-12-11T09:03:26;46.33;;;21.80;;
5967;SDS011;3010;51.028;4.170;2022-12-11T09:05:52;48.97;;;26.17;;
5967;SDS011;3010;51.028;4.170;2022-12-11T09:08:19;49.87;;;24.47;;
5967;SDS011;3010;51.028;4.170;2022-12-11T09:10:45;50.20;;;28.80;;
5967;SDS011;3010;51.028;4.170;2022-12-11T09:13:12;48.80;;;23.37;;
5967;SDS011;3010;51.028;4.170;2022-12-11T09:15:39;54.75;;;28.60;;
5967;SDS011;3010;51.028;4.170;2022-12-11T09:18:05;48.00;;;23.90;;
5967;SDS011;3010;51.028;4.170;2022-12-11T09:20:32;46.80;;;22.53;;
5967;SDS011;3010;51.028;4.170;2022-12-11T09:22:58;44.60;;;22.47;;
5967;SDS011;3010;51.028;4.170;2022-12-11T09:25:25;43.10;;;20.90;;
5967;SDS011;3010;51.028;4.170;2022-12-11T09:27:51;48.90;;;26.87;;
5967;SDS011;3010;51.028;4.170;2022-12-11T09:30:18;49.20;;;22.90;;
5967;SDS011;3010;51.028;4.170;2022-12-11T09:32:45;44.50;;;21.97;;
5967;SDS011;3010;51.028;4.170;2022-12-11T09:35:11;51.17;;;20.70;;
5967;SDS011;3010;51.028;4.170;2022-12-11T09:37:38;47.00;;;21.27;;
5967;SDS011;3010;51.028;4.170;2022-12-11T09:40:05;45.80;;;20.97;;
5967;SDS011;3010;51.028;4.170;2022-12-11T09:42:43;45.63;;;21.17;;
5967;SDS011;3010;51.028;4.170;2022-12-11T09:45:16;46.80;;;21.23;;
5967;SDS011;3010;51.028;4.170;2022-12-11T09:47:43;46.77;;;21.00;;
5967;SDS011;3010;51.028;4.170;2022-12-11T09:55:24;47.20;;;19.83;;
5967;SDS011;3010;51.028;4.170;2022-12-11T09:57:56;50.20;;;22.00;;
5967;SDS011;3010;51.028;4.170;2022-12-11T10:00:26;51.30;;;21.87;;
5967;SDS011;3010;51.028;4.170;2022-12-11T10:05:33;45.03;;;20.60;;
5967;SDS011;3010;51.028;4.170;2022-12-11T10:08:02;45.97;;;20.17;;
5967;SDS011;3010;51.028;4.170;2022-12-11T10:10:40;50.27;;;22.50;;
5967;SDS011;3010;51.028;4.170;2022-12-11T10:15:39;49.60;;;20.97;;
5967;SDS011;3010;51.028;4.170;2022-12-11T10:18:08;52.23;;;25.80;;
5967;SDS011;3010;51.028;4.170;2022-12-11T10:20:35;45.00;;;21.73;;
5967;SDS011;3010;51.028;4.170;2022-12-11T10:23:02;50.63;;;21.33;;
5967;SDS011;3010;51.028;4.170;2022-12-11T10:25:32;52.75;;;25.83;;
5967;SDS011;3010;51.028;4.170;2022-12-11T10:27:58;45.53;;;20.80;;
5967;SDS011;3010;51.028;4.170;2022-12-11T10:30:25;45.97;;;20.50;;
5967;SDS011;3010;51.028;4.170;2022-12-11T10:32:52;51.67;;;21.60;;
5967;SDS011;3010;51.028;4.170;2022-12-11T10:36:37;46.03;;;19.77;;
5967;SDS011;3010;51.028;4.170;2022-12-11T10:38:30;43.97;;;20.87;;
5967;SDS011;3010;51.028;4.170;2022-12-11T10:40:57;49.30;;;21.03;;
5967;SDS011;3010;51.028;4.170;2022-12-11T10:43:36;46.30;;;20.57;;
5967;SDS011;3010;51.028;4.170;2022-12-11T10:46:05;44.30;;;21.10;;
5967;SDS011;3010;51.028;4.170;2022-12-11T10:48:31;50.70;;;21.10;;
5967;SDS011;3010;51.028;4.170;2022-12-11T10:50:59;47.57;;;21.50;;
5967;SDS011;3010;51.028;4.170;2022-12-11T10:53:24;52.93;;;21.27;;
5967;SDS011;3010;51.028;4.170;2022-12-11T10:55:50;43.10;;;20.20;;
5967;SDS011;3010;51.028;4.170;2022-12-11T10:58:18;49.33;;;20.47;;
5967;SDS011;3010;51.028;4.170;2022-12-11T11:00:44;44.00;;;20.53;;
5967;SDS011;3010;51.028;4.170;2022-12-11T11:03:20;48.07;;;20.97;;
5967;SDS011;3010;51.028;4.170;2022-12-11T11:05:46;41.90;;;20.10;;
5967;SDS011;3010;51.028;4.170;2022-12-11T11:08:19;48.70;;;24.85;;
5967;SDS011;3010;51.028;4.170;2022-12-11T11:10:48;45.40;;;22.20;;
5967;SDS011;3010;51.028;4.170;2022-12-11T11:13:14;48.60;;;21.70;;
5967;SDS011;3010;51.028;4.170;2022-12-11T11:15:41;42.03;;;20.20;;
5967;SDS011;3010;51.028;4.170;2022-12-11T11:18:11;41.00;;;19.50;;
5967;SDS011;3010;51.028;4.170;2022-12-11T11:20:37;38.13;;;18.37;;
5967;SDS011;3010;51.028;4.170;2022-12-11T11:23:07;39.43;;;18.87;;
5967;SDS011;3010;51.028;4.170;2022-12-11T11:25:31;39.73;;;18.27;;
5967;SDS011;3010;51.028;4.170;2022-12-11T11:27:59;32.80;;;16.57;;
5967;SDS011;3010;51.028;4.170;2022-12-11T11:30:34;35.70;;;17.73;;
5967;SDS011;3010;51.028;4.170;2022-12-11T11:33:03;33.70;;;17.37;;
5967;SDS011;3010;51.028;4.170;2022-12-11T11:35:29;35.40;;;17.53;;
5967;SDS011;3010;51.028;4.170;2022-12-11T11:43:51;39.73;;;18.00;;
5967;SDS011;3010;51.028;4.170;2022-12-11T11:46:33;33.73;;;16.67;;
5967;SDS011;3010;51.028;4.170;2022-12-11T11:54:49;32.43;;;16.83;;
5967;SDS011;3010;51.028;4.170;2022-12-11T11:57:21;31.53;;;16.37;;
5967;SDS011;3010;51.028;4.170;2022-12-11T11:59:51;36.20;;;15.10;;
5967;SDS011;3010;51.028;4.170;2022-12-11T12:02:19;34.20;;;17.47;;
5967;SDS011;3010;51.028;4.170;2022-12-11T12:04:46;34.37;;;15.63;;
5967;SDS011;3010;51.028;4.170;2022-12-11T12:12:48;29.73;;;15.43;;
5967;SDS011;3010;51.028;4.170;2022-12-11T12:20:52;31.30;;;15.33;;
5967;SDS011;3010;51.028;4.170;2022-12-11T12:23:24;31.37;;;15.97;;
5967;SDS011;3010;51.028;4.170;2022-12-11T12:25:56;29.50;;;16.30;;
5967;SDS011;3010;51.028;4.170;2022-12-11T12:33:52;33.10;;;16.00;;
5967;SDS011;3010;51.028;4.170;2022-12-11T12:39:02;29.03;;;15.90;;
5967;SDS011;3010;51.028;4.170;2022-12-11T12:41:48;35.97;;;17.07;;
5967;SDS011;3010;51.028;4.170;2022-12-11T12:44:21;31.50;;;15.37;;
5967;SDS011;3010;51.028;4.170;2022-12-11T12:46:55;29.73;;;16.03;;
5967;SDS011;3010;51.028;4.170;2022-12-11T12:49:28;28.73;;;14.77;;
5967;SDS011;3010;51.028;4.170;2022-12-11T12:51:55;33.87;;;16.57;;
5967;SDS011;3010;51.028;4.170;2022-12-11T12:54:22;41.42;;;22.40;;
5967;SDS011;3010;51.028;4.170;2022-12-11T12:56:48;34.27;;;18.53;;
5967;SDS011;3010;51.028;4.170;2022-12-11T12:59:19;36.73;;;17.53;;
5967;SDS011;3010;51.028;4.170;2022-12-11T13:01:54;36.60;;;17.27;;
5967;SDS011;3010;51.028;4.170;2022-12-11T13:04:28;37.47;;;17.00;;
5967;SDS011;3010;51.028;4.170;2022-12-11T13:06:52;35.87;;;17.27;;
5967;SDS011;3010;51.028;4.170;2022-12-11T13:09:23;33.33;;;17.33;;
5967;SDS011;3010;51.028;4.170;2022-12-11T13:11:49;47.87;;;18.63;;
5967;SDS011;3010;51.028;4.170;2022-12-11T13:16:42;37.70;;;18.43;;
5967;SDS011;3010;51.028;4.170;2022-12-11T13:19:15;38.20;;;18.57;;
5967;SDS011;3010;51.028;4.170;2022-12-11T13:24:47;42.53;;;20.83;;
5967;SDS011;3010;51.028;4.170;2022-12-11T13:27:25;36.20;;;19.20;;
5967;SDS011;3010;51.028;4.170;2022-12-11T13:29:48;37.37;;;18.93;;
5967;SDS011;3010;51.028;4.170;2022-12-11T13:34:43;36.53;;;19.80;;
5967;SDS011;3010;51.028;4.170;2022-12-11T13:39:56;39.37;;;18.67;;
5967;SDS011;3010;51.028;4.170;2022-12-11T13:42:34;41.33;;;19.60;;
5967;SDS011;3010;51.028;4.170;2022-12-11T13:44:58;39.30;;;20.20;;
5967;SDS011;3010;51.028;4.170;2022-12-11T13:47:25;42.00;;;20.43;;
5967;SDS011;3010;51.028;4.170;2022-12-11T13:49:52;50.80;;;26.15;;
5967;SDS011;3010;51.028;4.170;2022-12-11T13:52:20;40.43;;;20.80;;
5967;SDS011;3010;51.028;4.170;2022-12-11T13:54:48;45.10;;;21.03;;
5967;SDS011;3010;51.028;4.170;2022-12-11T13:57:16;46.42;;;25.52;;
5967;SDS011;3010;51.028;4.170;2022-12-11T13:59:45;38.00;;;21.00;;
5967;SDS011;3010;51.028;4.170;2022-12-11T14:04:36;44.10;;;21.30;;
5967;SDS011;3010;51.028;4.170;2022-12-11T14:07:05;42.17;;;21.20;;
5967;SDS011;3010;51.028;4.170;2022-12-11T14:09:30;40.67;;;20.87;;
5967;SDS011;3010;51.028;4.170;2022-12-11T14:11:56;40.07;;;20.37;;
5967;SDS011;3010;51.028;4.170;2022-12-11T14:14:26;41.83;;;20.10;;
5967;SDS011;3010;51.028;4.170;2022-12-11T14:17:04;43.40;;;20.20;;
5967;SDS011;3010;51.028;4.170;2022-12-11T14:19:31;41.87;;;19.93;;
5967;SDS011;3010;51.028;4.170;2022-12-11T14:22:02;36.53;;;19.60;;
5967;SDS011;3010;51.028;4.170;2022-12-11T14:24:27;35.93;;;19.33;;
5967;SDS011;3010;51.028;4.170;2022-12-11T14:26:54;37.13;;;19.80;;
5967;SDS011;3010;51.028;4.170;2022-12-11T14:29:24;43.30;;;21.03;;
5967;SDS011;3010;51.028;4.170;2022-12-11T14:31:50;50.40;;;23.60;;
5967;SDS011;3010;51.028;4.170;2022-12-11T14:34:18;44.97;;;21.87;;
5967;SDS011;3010;51.028;4.170;2022-12-11T14:36:43;40.57;;;20.87;;
5967;SDS011;3010;51.028;4.170;2022-12-11T14:39:13;36.17;;;19.00;;
5967;SDS011;3010;51.028;4.170;2022-12-11T14:44:13;50.43;;;24.07;;
5967;SDS011;3010;51.028;4.170;2022-12-11T14:51:52;78.03;;;32.67;;
5967;SDS011;3010;51.028;4.170;2022-12-11T14:54:36;65.27;;;27.97;;
5967;SDS011;3010;51.028;4.170;2022-12-11T14:57:03;96.20;;;45.20;;
5967;SDS011;3010;51.028;4.170;2022-12-11T14:59:29;64.93;;;33.10;;
5967;SDS011;3010;51.028;4.170;2022-12-11T15:01:57;50.90;;;25.63;;
5967;SDS011;3010;51.028;4.170;2022-12-11T15:04:26;53.93;;;25.90;;
5967;SDS011;3010;51.028;4.170;2022-12-11T15:06:50;53.80;;;25.80;;
5967;SDS011;3010;51.028;4.170;2022-12-11T15:11:51;41.77;;;21.67;;
5967;SDS011;3010;51.028;4.170;2022-12-11T15:14:18;47.73;;;22.17;;
5967;SDS011;3010;51.028;4.170;2022-12-11T15:16:44;51.03;;;20.87;;
5967;SDS011;3010;51.028;4.170;2022-12-11T15:19:27;41.10;;;20.60;;
5967;SDS011;3010;51.028;4.170;2022-12-11T15:22:00;40.57;;;21.00;;
5967;SDS011;3010;51.028;4.170;2022-12-11T15:24:23;50.58;;;27.55;;
5967;SDS011;3010;51.028;4.170;2022-12-11T15:26:48;47.67;;;22.57;;
5967;SDS011;3010;51.028;4.170;2022-12-11T15:29:32;52.88;;;27.52;;
5967;SDS011;3010;51.028;4.170;2022-12-11T15:34:45;43.90;;;21.07;;
5967;SDS011;3010;51.028;4.170;2022-12-11T15:39:56;46.57;;;21.83;;
5967;SDS011;3010;51.028;4.170;2022-12-11T15:42:24;49.07;;;22.00;;
5967;SDS011;3010;51.028;4.170;2022-12-11T15:44:48;40.87;;;19.60;;
5967;SDS011;3010;51.028;4.170;2022-12-11T15:47:17;41.87;;;21.13;;
5967;SDS011;3010;51.028;4.170;2022-12-11T15:49:41;41.73;;;21.10;;
5967;SDS011;3010;51.028;4.170;2022-12-11T15:52:08;53.17;;;21.43;;
5967;SDS011;3010;51.028;4.170;2022-12-11T15:54:34;41.07;;;19.73;;
5967;SDS011;3010;51.028;4.170;2022-12-11T15:57:02;45.63;;;21.07;;
5967;SDS011;3010;51.028;4.170;2022-12-11T15:59:28;41.77;;;20.03;;
5967;SDS011;3010;51.028;4.170;2022-12-11T16:01:54;43.00;;;20.93;;
5967;SDS011;3010;51.028;4.170;2022-12-11T16:04:21;44.00;;;20.23;;
5967;SDS011;3010;51.028;4.170;2022-12-11T16:06:47;52.38;;;26.25;;
5967;SDS011;3010;51.028;4.170;2022-12-11T16:09:14;38.30;;;21.33;;
5967;SDS011;3010;51.028;4.170;2022-12-11T16:11:41;43.37;;;20.03;;
5967;SDS011;3010;51.028;4.170;2022-12-11T16:14:07;45.07;;;20.57;;
5967;SDS011;3010;51.028;4.170;2022-12-11T16:16:36;43.57;;;22.17;;